createdAt,value
2018-03-16T00:00:00.039Z,9.02
2018-03-16T00:02:26.050Z,9.15
2018-03-16T00:04:51.996Z,8.60
2018-03-16T00:07:18.152Z,8.03
2018-03-16T00:09:44.847Z,8.15
2018-03-16T00:12:10.976Z,7.45
2018-03-16T00:14:36.949Z,7.65
2018-03-16T00:17:02.909Z,7.15
2018-03-16T00:19:28.929Z,7.70
2018-03-16T00:21:55.138Z,8.10
2018-03-16T00:24:21.241Z,7.20
2018-03-16T00:26:47.201Z,6.70
2018-03-16T00:29:13.200Z,6.32
2018-03-16T00:31:39.230Z,6.37
2018-03-16T00:34:05.223Z,6.80
2018-03-16T00:36:31.960Z,7.40
2018-03-16T00:38:58.873Z,6.10
2018-03-16T00:41:25.064Z,5.85
2018-03-16T00:43:51.149Z,6.18
2018-03-16T00:46:17.877Z,5.55
2018-03-16T00:48:43.917Z,5.70
2018-03-16T00:51:09.893Z,6.10
2018-03-16T00:53:35.900Z,5.45
2018-03-16T00:56:01.915Z,5.20
2018-03-16T00:58:28.287Z,4.00
2018-03-16T01:00:54.307Z,4.20
2018-03-16T01:03:20.272Z,3.90
2018-03-16T01:05:46.660Z,4.00
2018-03-16T01:08:13.203Z,4.07
2018-03-16T01:10:39.318Z,3.33
2018-03-16T01:13:05.469Z,3.85
2018-03-16T01:15:31.496Z,4.18
2018-03-16T01:17:57.454Z,3.83
2018-03-16T01:20:23.449Z,3.93
2018-03-16T01:22:50.153Z,4.30
2018-03-16T01:25:16.156Z,4.50
2018-03-16T01:27:42.151Z,4.30
2018-03-16T01:30:08.138Z,3.55
2018-03-16T01:32:34.105Z,3.40
2018-03-16T01:35:00.062Z,2.60
2018-03-16T01:37:26.624Z,2.50
2018-03-16T01:39:52.599Z,2.53
2018-03-16T01:42:18.617Z,2.37
2018-03-16T01:44:44.586Z,2.05
2018-03-16T01:47:10.548Z,1.80
2018-03-16T01:49:36.594Z,2.10
2018-03-16T01:52:02.585Z,2.10
2018-03-16T01:54:29.350Z,1.70
2018-03-16T01:56:55.306Z,2.00
2018-03-16T01:59:21.450Z,1.98
2018-03-16T02:01:47.445Z,1.80
2018-03-16T02:04:13.436Z,2.17
2018-03-16T02:06:39.420Z,1.70
2018-03-16T02:09:05.416Z,2.10
2018-03-16T02:11:31.373Z,2.20
2018-03-16T02:13:58.268Z,2.47
2018-03-16T02:16:24.307Z,2.40
2018-03-16T02:18:50.408Z,2.10
2018-03-16T02:21:16.428Z,1.95
2018-03-16T02:23:42.412Z,2.15
2018-03-16T02:26:08.417Z,2.15
2018-03-16T02:28:34.437Z,2.05
2018-03-16T02:31:00.538Z,1.98
2018-03-16T02:33:26.542Z,1.85
2018-03-16T02:35:52.601Z,1.80
2018-03-16T02:38:18.592Z,2.15
2018-03-16T02:40:44.605Z,2.22
2018-03-16T02:43:10.563Z,2.20
2018-03-16T02:45:36.657Z,2.00
2018-03-16T02:48:02.640Z,1.70
2018-03-16T02:50:29.363Z,1.75
2018-03-16T02:52:55.348Z,1.80
2018-03-16T02:55:21.380Z,2.00
2018-03-16T02:57:47.364Z,1.90
2018-03-16T03:00:14.132Z,2.03
2018-03-16T03:02:41.039Z,1.80
2018-03-16T03:05:07.788Z,2.20
2018-03-16T03:07:34.530Z,2.10
2018-03-16T03:10:01.276Z,1.90
2018-03-16T03:12:27.424Z,1.75
2018-03-16T03:14:53.483Z,1.85
2018-03-16T03:17:19.456Z,1.70
2018-03-16T03:19:45.579Z,2.08
2018-03-16T03:22:11.546Z,1.92
2018-03-16T03:24:37.544Z,1.90
2018-03-16T03:27:03.516Z,1.90
2018-03-16T03:29:29.520Z,1.75
2018-03-16T03:31:55.484Z,1.90
2018-03-16T03:34:21.473Z,2.00
2018-03-16T03:36:47.460Z,2.10
2018-03-16T03:39:13.439Z,2.20
2018-03-16T03:41:40.189Z,2.15
2018-03-16T03:44:06.878Z,2.00
2018-03-16T03:46:32.876Z,2.33
2018-03-16T03:48:58.860Z,1.90
2018-03-16T03:51:24.976Z,1.90
2018-03-16T03:53:50.956Z,1.90
2018-03-16T03:56:16.924Z,1.75
2018-03-16T03:58:42.919Z,1.95
2018-03-16T04:01:08.936Z,1.65
2018-03-16T04:03:34.888Z,1.60
2018-03-16T04:06:00.893Z,1.80
2018-03-16T04:08:26.866Z,1.98
2018-03-16T04:10:52.951Z,1.60
2018-03-16T04:13:18.960Z,1.60
2018-03-16T04:15:45.086Z,1.50
2018-03-16T04:18:11.036Z,1.60
2018-03-16T04:20:37.036Z,1.67
2018-03-16T04:23:03.069Z,1.62
2018-03-16T04:25:29.075Z,1.80
2018-03-16T04:27:55.171Z,1.65
2018-03-16T04:30:21.125Z,1.60
2018-03-16T04:32:47.121Z,1.73
2018-03-16T04:35:13.067Z,1.77
2018-03-16T04:37:39.064Z,1.90
2018-03-16T04:40:05.101Z,1.50
2018-03-16T04:42:31.083Z,2.00
2018-03-16T04:44:57.827Z,1.80
2018-03-16T04:47:24.566Z,1.60
2018-03-16T04:49:51.262Z,1.58
2018-03-16T04:52:17.236Z,1.70
2018-03-16T04:54:43.237Z,2.20
2018-03-16T04:57:10.098Z,6.60
2018-03-16T04:59:36.051Z,10.65
2018-03-16T05:02:02.056Z,12.57
2018-03-16T05:04:27.999Z,16.40
2018-03-16T05:06:53.973Z,13.40
2018-03-16T05:09:20.694Z,8.45
2018-03-16T05:11:46.664Z,13.20
2018-03-16T05:14:12.920Z,6.82
2018-03-16T05:16:38.868Z,5.07
2018-03-16T05:19:05.133Z,4.23
2018-03-16T05:21:32.026Z,2.42
2018-03-16T05:23:57.995Z,1.90
2018-03-16T05:26:25.032Z,1.90
2018-03-16T05:28:51.830Z,1.83
2018-03-16T05:31:17.975Z,2.15
2018-03-16T05:33:43.923Z,2.60
2018-03-16T05:36:10.704Z,1.77
2018-03-16T05:38:39.201Z,1.83
2018-03-16T05:41:07.823Z,2.28
2018-03-16T05:43:34.551Z,1.80
2018-03-16T05:46:00.573Z,2.50
2018-03-16T05:48:26.545Z,2.22
2018-03-16T05:50:52.488Z,2.30
2018-03-16T05:53:18.512Z,2.00
2018-03-16T05:55:44.465Z,2.05
2018-03-16T05:58:11.201Z,1.83
2018-03-16T06:00:37.207Z,2.10
2018-03-16T06:03:03.218Z,2.25
2018-03-16T06:05:29.229Z,1.90
2018-03-16T06:07:55.324Z,2.08
2018-03-16T06:10:21.324Z,1.85
2018-03-16T06:12:47.414Z,2.50
2018-03-16T06:15:13.409Z,2.05
2018-03-16T06:17:39.397Z,2.17
2018-03-16T06:20:06.089Z,1.83
2018-03-16T06:22:32.088Z,1.83
2018-03-16T06:24:58.148Z,1.90
2018-03-16T06:27:24.091Z,2.40
2018-03-16T06:29:50.050Z,1.77
2018-03-16T06:32:16.045Z,2.00
2018-03-16T06:34:42.029Z,2.30
2018-03-16T06:37:08.021Z,1.60
2018-03-16T06:39:33.974Z,1.70
2018-03-16T06:42:00.114Z,2.10
2018-03-16T06:44:26.061Z,2.00
2018-03-16T06:46:52.760Z,2.37
2018-03-16T06:49:18.758Z,2.20
2018-03-16T06:51:44.724Z,2.20
2018-03-16T06:54:10.752Z,2.40
2018-03-16T06:56:36.705Z,2.47
2018-03-16T06:59:03.438Z,2.40
2018-03-16T07:01:30.160Z,2.30
2018-03-16T07:03:56.092Z,2.40
2018-03-16T07:06:22.819Z,2.20
2018-03-16T07:08:48.821Z,2.40
2018-03-16T07:11:14.787Z,2.50
2018-03-16T07:13:41.791Z,2.30
2018-03-16T07:16:07.764Z,2.55
2018-03-16T07:18:34.488Z,2.20
2018-03-16T07:21:01.195Z,2.35
2018-03-16T07:23:27.181Z,2.10
2018-03-16T07:25:53.152Z,2.40
2018-03-16T07:28:19.269Z,2.00
2018-03-16T07:30:45.236Z,2.20
2018-03-16T07:33:11.228Z,2.00
2018-03-16T07:35:37.200Z,2.65
2018-03-16T07:38:03.157Z,2.17
2018-03-16T07:40:29.160Z,2.30
2018-03-16T07:42:55.128Z,2.10
2018-03-16T07:45:22.010Z,2.03
2018-03-16T07:47:47.973Z,1.73
2018-03-16T07:50:13.982Z,2.00
2018-03-16T07:52:39.978Z,2.10
2018-03-16T07:55:05.958Z,1.70
2018-03-16T07:57:31.980Z,1.98
2018-03-16T07:59:57.937Z,1.90
2018-03-16T08:02:24.037Z,1.80
2018-03-16T08:04:50.771Z,1.90
2018-03-16T08:07:16.737Z,2.00
2018-03-16T08:09:42.681Z,1.80
2018-03-16T08:12:08.776Z,2.03
2018-03-16T08:14:34.793Z,1.90
2018-03-16T08:17:00.909Z,2.30
2018-03-16T08:19:26.876Z,1.90
2018-03-16T08:21:52.856Z,1.55
2018-03-16T08:24:18.832Z,1.92
2018-03-16T08:26:44.817Z,1.60
2018-03-16T08:29:10.857Z,1.52
2018-03-16T08:31:36.834Z,1.73
2018-03-16T08:34:03.770Z,1.70
2018-03-16T08:36:29.685Z,1.65
2018-03-16T08:38:55.697Z,1.87
2018-03-16T08:41:21.653Z,1.67
2018-03-16T08:43:47.617Z,1.70
2018-03-16T08:46:13.608Z,1.73
2018-03-16T08:48:39.584Z,1.40
2018-03-16T08:51:05.756Z,1.40
2018-03-16T08:53:31.766Z,1.10
2018-03-16T08:55:57.772Z,1.20
2018-03-16T08:58:24.509Z,1.23
2018-03-16T09:00:50.505Z,1.65
2018-03-16T09:03:16.487Z,1.30
2018-03-16T09:05:42.589Z,1.30
2018-03-16T09:08:09.348Z,1.52
2018-03-16T09:10:35.345Z,1.70
2018-03-16T09:13:01.496Z,1.80
2018-03-16T09:15:27.503Z,1.75
2018-03-16T09:17:54.252Z,1.65
2018-03-16T09:20:20.225Z,2.00
2018-03-16T09:22:46.205Z,1.50
2018-03-16T09:25:12.229Z,2.30
2018-03-16T09:27:38.199Z,2.00
2018-03-16T09:30:04.189Z,2.15
2018-03-16T09:32:30.166Z,1.90
2018-03-16T09:34:56.170Z,2.00
2018-03-16T09:37:22.139Z,1.73
2018-03-16T09:39:48.280Z,1.90
2018-03-16T09:42:14.255Z,1.73
2018-03-16T09:44:40.261Z,2.00
2018-03-16T09:47:06.212Z,1.90
2018-03-16T09:49:32.947Z,2.30
2018-03-16T09:51:58.933Z,2.22
2018-03-16T09:54:24.942Z,2.05
2018-03-16T09:56:50.959Z,1.98
2018-03-16T09:59:16.908Z,2.05
2018-03-16T10:01:42.859Z,2.20
2018-03-16T10:04:08.859Z,1.73
2018-03-16T10:06:34.836Z,2.87
2018-03-16T10:09:00.826Z,1.83
2018-03-16T10:11:26.924Z,1.90
2018-03-16T10:13:53.001Z,3.30
2018-03-16T10:16:18.984Z,1.90
2018-03-16T10:18:44.940Z,2.50
2018-03-16T10:21:10.944Z,1.90
2018-03-16T10:23:37.688Z,1.67
2018-03-16T10:26:04.405Z,2.17
2018-03-16T10:28:30.533Z,2.08
2018-03-16T10:30:56.497Z,2.00
2018-03-16T10:33:22.520Z,2.30
2018-03-16T10:35:48.592Z,1.92
2018-03-16T10:38:14.586Z,2.37
2018-03-16T10:40:40.543Z,2.25
2018-03-16T10:43:06.648Z,2.00
2018-03-16T10:45:34.024Z,2.53
2018-03-16T10:48:00.077Z,2.00
2018-03-16T10:50:27.459Z,2.37
2018-03-16T10:52:53.492Z,2.12
2018-03-16T10:55:19.889Z,2.12
2018-03-16T10:57:46.753Z,1.65
2018-03-16T11:00:12.740Z,2.75
2018-03-16T11:02:40.013Z,2.37
2018-03-16T11:05:06.007Z,2.00
2018-03-16T11:07:32.020Z,2.03
2018-03-16T11:09:58.723Z,1.65
2018-03-16T11:12:25.915Z,2.17
2018-03-16T11:14:53.352Z,1.77
2018-03-16T11:17:19.902Z,1.75
2018-03-16T11:19:46.155Z,2.00
2018-03-16T11:22:12.902Z,2.12
2018-03-16T11:24:40.813Z,1.70
2018-03-16T11:27:06.798Z,1.80
2018-03-16T11:29:33.696Z,1.75
2018-03-16T11:31:59.663Z,1.80
2018-03-16T11:34:25.732Z,1.87
2018-03-16T11:36:51.710Z,1.90
2018-03-16T11:39:18.517Z,1.83
2018-03-16T11:41:44.585Z,1.75
2018-03-16T11:44:10.562Z,1.73
2018-03-16T11:46:36.549Z,1.87
2018-03-16T11:49:02.541Z,2.00
2018-03-16T11:51:29.273Z,1.40
2018-03-16T11:53:55.405Z,1.58
2018-03-16T11:56:22.133Z,1.40
2018-03-16T11:58:48.122Z,1.70
2018-03-16T12:01:14.188Z,1.50
2018-03-16T12:03:40.168Z,1.50
2018-03-16T12:06:06.184Z,1.33
2018-03-16T12:08:32.153Z,1.70
2018-03-16T12:10:59.020Z,1.77
2018-03-16T12:13:25.013Z,1.70
2018-03-16T12:15:51.176Z,1.70
2018-03-16T12:18:17.306Z,1.80
2018-03-16T12:20:43.312Z,1.30
2018-03-16T12:23:09.288Z,2.20
2018-03-16T12:25:35.265Z,1.55
2018-03-16T12:28:01.272Z,3.33
2018-03-16T12:30:27.669Z,2.40
2018-03-16T12:32:53.801Z,1.60
2018-03-16T12:35:20.119Z,1.95
2018-03-16T12:37:46.121Z,1.55
2018-03-16T12:40:12.152Z,1.60
2018-03-16T12:42:38.156Z,1.62
2018-03-16T12:45:04.276Z,1.77
2018-03-16T12:47:30.496Z,1.50
2018-03-16T12:49:57.882Z,1.10
2018-03-16T12:52:24.106Z,1.65
2018-03-16T12:54:50.137Z,1.85
2018-03-16T12:57:16.163Z,2.30
2018-03-16T12:59:42.335Z,1.40
2018-03-16T13:02:08.431Z,1.50
2018-03-16T13:04:35.571Z,1.60
2018-03-16T13:07:01.841Z,1.40
2018-03-16T13:09:28.682Z,1.40
2018-03-16T13:11:55.172Z,1.65
2018-03-16T13:14:21.633Z,1.77
2018-03-16T13:16:48.958Z,1.60
2018-03-16T13:19:15.032Z,1.70
2018-03-16T13:21:41.068Z,1.80
2018-03-16T13:24:07.049Z,1.75
2018-03-16T13:26:33.096Z,1.85
2018-03-16T13:28:59.904Z,1.42
2018-03-16T13:31:25.905Z,1.95
2018-03-16T13:33:52.580Z,1.65
2018-03-16T13:36:18.552Z,1.70
2018-03-16T13:38:44.588Z,1.90
2018-03-16T13:41:10.584Z,1.20
2018-03-16T13:43:37.340Z,1.55
2018-03-16T13:46:03.339Z,2.60
2018-03-16T13:48:30.077Z,1.83
2018-03-16T13:50:56.794Z,1.10
2018-03-16T13:53:23.563Z,1.70
2018-03-16T13:55:49.717Z,1.20
2018-03-16T13:58:16.692Z,1.27
2018-03-16T14:00:42.743Z,1.65
2018-03-16T14:03:09.473Z,1.95
2018-03-16T14:05:36.371Z,1.55
2018-03-16T14:08:03.088Z,1.77
2018-03-16T14:10:29.118Z,1.60
2018-03-16T14:12:55.316Z,1.77
2018-03-16T14:15:22.084Z,1.85
2018-03-16T14:17:48.404Z,2.87
2018-03-16T14:20:14.657Z,1.70
2018-03-16T14:22:40.830Z,1.20
2018-03-16T14:25:06.821Z,1.50
2018-03-16T14:27:32.816Z,1.75
2018-03-16T14:29:58.802Z,1.40
2018-03-16T14:32:24.778Z,1.83
2018-03-16T14:34:50.803Z,1.60
2018-03-16T14:37:16.802Z,1.80
2018-03-16T14:39:43.509Z,2.72
2018-03-16T14:42:09.483Z,2.33
2018-03-16T14:44:35.448Z,2.10
2018-03-16T14:47:01.459Z,2.20
2018-03-16T14:49:27.411Z,2.00
2018-03-16T14:51:54.257Z,1.77
2018-03-16T14:54:20.973Z,1.45
2018-03-16T14:56:46.934Z,1.73
2018-03-16T14:59:12.943Z,1.93
2018-03-16T15:01:39.657Z,1.77
2018-03-16T15:04:05.649Z,1.70
2018-03-16T15:06:31.629Z,1.70
2018-03-16T15:08:57.729Z,2.08
2018-03-16T15:11:23.678Z,2.53
2018-03-16T15:13:50.635Z,1.40
2018-03-16T15:16:16.612Z,1.77
2018-03-16T15:18:42.600Z,1.67
2018-03-16T15:21:08.547Z,1.90
2018-03-16T15:23:34.653Z,1.63
2018-03-16T15:26:00.621Z,1.90
2018-03-16T15:28:26.606Z,1.73
2018-03-16T15:30:52.598Z,1.40
2018-03-16T15:33:18.572Z,1.75
2018-03-16T15:35:44.568Z,1.70
2018-03-16T15:38:10.545Z,1.90
2018-03-16T15:40:37.233Z,2.00
2018-03-16T15:43:03.258Z,1.70
2018-03-16T15:45:29.267Z,1.70
2018-03-16T15:47:55.289Z,2.22
2018-03-16T15:50:21.234Z,2.45
2018-03-16T15:52:47.355Z,1.87
2018-03-16T15:55:13.321Z,1.70
2018-03-16T15:57:40.177Z,1.93
2018-03-16T16:00:06.891Z,1.70
2018-03-16T16:02:32.834Z,2.50
2018-03-16T16:04:59.546Z,1.57
2018-03-16T16:07:25.532Z,1.90
2018-03-16T16:09:52.024Z,1.92
2018-03-16T16:12:18.946Z,1.67
2018-03-16T16:14:44.898Z,1.70
2018-03-16T16:17:11.578Z,1.87
2018-03-16T16:19:37.691Z,1.90
2018-03-16T16:22:03.668Z,1.95
2018-03-16T16:24:30.414Z,1.90
2018-03-16T16:26:56.379Z,2.33
2018-03-16T16:29:22.507Z,1.73
2018-03-16T16:31:48.462Z,2.00
2018-03-16T16:34:14.479Z,1.87
2018-03-16T16:36:40.429Z,1.90
2018-03-16T16:39:06.444Z,2.13
2018-03-16T16:41:32.404Z,1.70
2018-03-16T16:43:58.373Z,1.73
2018-03-16T16:46:24.510Z,1.70
2018-03-16T16:48:50.455Z,1.70
2018-03-16T16:51:17.184Z,1.20
2018-03-16T16:53:43.886Z,1.70
2018-03-16T16:56:09.938Z,1.87
2018-03-16T16:58:35.885Z,1.60
2018-03-16T17:01:01.992Z,1.97
2018-03-16T17:03:28.733Z,1.58
2018-03-16T17:05:54.732Z,1.73
2018-03-16T17:08:20.696Z,2.10
2018-03-16T17:10:46.652Z,1.67
2018-03-16T17:13:12.795Z,2.00
2018-03-16T17:15:38.802Z,1.60
2018-03-16T17:18:04.913Z,2.10
2018-03-16T17:20:30.866Z,2.28
2018-03-16T17:22:56.832Z,2.80
2018-03-16T17:25:23.610Z,2.50
2018-03-16T17:27:49.621Z,2.47
2018-03-16T17:30:26.730Z,2.05
2018-03-16T17:32:52.845Z,2.05
2018-03-16T17:35:18.826Z,1.95
2018-03-16T17:37:45.569Z,2.17
2018-03-16T17:40:12.269Z,1.58
2018-03-16T17:42:38.222Z,1.60
2018-03-16T17:45:04.934Z,2.40
2018-03-16T17:47:30.892Z,8.05
2018-03-16T17:49:57.044Z,2.30
2018-03-16T17:52:23.777Z,2.05
2018-03-16T17:54:49.753Z,2.20
2018-03-16T17:57:15.736Z,2.33
2018-03-16T17:59:42.497Z,2.03
2018-03-16T18:02:08.480Z,2.67
2018-03-16T18:04:34.464Z,2.05
2018-03-16T18:07:00.551Z,2.40
2018-03-16T18:09:26.496Z,2.37
2018-03-16T18:11:52.493Z,2.30
2018-03-16T18:14:18.593Z,2.17
2018-03-16T18:16:44.705Z,3.00
2018-03-16T18:19:11.409Z,3.90
2018-03-16T18:21:37.450Z,5.97
2018-03-16T18:24:03.404Z,3.87
2018-03-16T18:26:29.372Z,2.70
2018-03-16T18:28:55.401Z,2.70
2018-03-16T18:31:21.342Z,2.20
2018-03-16T18:33:48.066Z,2.20
2018-03-16T18:36:14.026Z,2.08
2018-03-16T18:38:40.136Z,2.90
2018-03-16T18:41:06.832Z,2.97
2018-03-16T18:43:33.564Z,2.87
2018-03-16T18:45:59.531Z,4.20
2018-03-16T18:48:26.412Z,4.95
2018-03-16T18:50:52.414Z,4.62
2018-03-16T18:53:19.179Z,3.87
2018-03-16T18:55:45.139Z,3.85
2018-03-16T18:58:11.135Z,3.97
2018-03-16T19:00:37.829Z,3.90
2018-03-16T19:03:03.793Z,3.83
2018-03-16T19:05:29.918Z,3.93
2018-03-16T19:07:55.889Z,3.47
2018-03-16T19:10:22.671Z,3.22
2018-03-16T19:12:48.632Z,3.28
2018-03-16T19:15:15.400Z,3.00
2018-03-16T19:17:49.144Z,3.37
2018-03-16T19:20:15.160Z,3.53
2018-03-16T19:22:55.358Z,2.90
2018-03-16T19:25:21.387Z,3.75
2018-03-16T19:27:47.371Z,2.50
2018-03-16T19:30:13.324Z,2.45
2018-03-16T19:32:39.339Z,2.60
2018-03-16T19:35:05.471Z,2.87
2018-03-16T19:37:32.433Z,3.70
2018-03-16T19:39:59.214Z,4.10
2018-03-16T19:42:25.226Z,3.35
2018-03-16T19:44:51.227Z,3.50
2018-03-16T19:47:17.197Z,2.80
2018-03-16T19:49:43.143Z,2.20
2018-03-16T19:52:09.112Z,2.50
2018-03-16T19:54:35.820Z,2.97
2018-03-16T19:57:01.774Z,3.08
2018-03-16T19:59:27.761Z,2.90
2018-03-16T20:01:53.700Z,2.55
2018-03-16T20:04:19.721Z,2.70
2018-03-16T20:06:45.687Z,2.40
2018-03-16T20:09:11.789Z,2.90
2018-03-16T20:11:37.736Z,2.70
2018-03-16T20:14:03.849Z,3.20
2018-03-16T20:16:29.846Z,2.75
2018-03-16T20:18:56.604Z,3.40
2018-03-16T20:21:22.580Z,3.10
2018-03-16T20:23:48.581Z,4.18
2018-03-16T20:26:14.675Z,4.10
2018-03-16T20:28:40.658Z,3.78
2018-03-16T20:31:06.649Z,4.25
2018-03-16T20:33:32.661Z,3.70
2018-03-16T20:35:58.631Z,4.10
2018-03-16T20:38:24.634Z,4.18
2018-03-16T20:40:50.637Z,4.30
2018-03-16T20:43:16.758Z,4.65
2018-03-16T20:45:42.714Z,4.62
2018-03-16T20:48:08.717Z,4.50
2018-03-16T20:50:34.725Z,5.00
2018-03-16T20:53:00.706Z,5.35
2018-03-16T20:55:27.406Z,5.18
2018-03-16T20:57:53.525Z,4.90
2018-03-16T21:00:19.549Z,5.05
2018-03-16T21:02:45.553Z,4.57
2018-03-16T21:05:11.553Z,4.28
2018-03-16T21:07:38.285Z,5.97
2018-03-16T21:10:04.265Z,4.03
2018-03-16T21:12:30.464Z,4.20
2018-03-16T21:14:56.429Z,4.65
2018-03-16T21:17:22.532Z,4.03
2018-03-16T21:19:48.490Z,4.47
2018-03-16T21:22:14.537Z,4.65
2018-03-16T21:24:40.505Z,4.20
2018-03-16T21:27:06.513Z,5.00
2018-03-16T21:29:32.474Z,4.55
2018-03-16T21:31:58.600Z,5.00
2018-03-16T21:34:24.562Z,4.55
2018-03-16T21:36:50.520Z,4.40
2018-03-16T21:39:16.510Z,4.90
2018-03-16T21:41:42.458Z,5.47
2018-03-16T21:44:08.446Z,5.20
2018-03-16T21:46:34.402Z,5.05
2018-03-16T21:49:00.533Z,4.57
2018-03-16T21:51:26.506Z,4.55
2018-03-16T21:53:53.277Z,4.93
2018-03-16T21:56:19.250Z,4.30
2018-03-16T21:58:45.241Z,5.15
2018-03-16T22:01:11.242Z,3.83
2018-03-16T22:03:37.243Z,5.43
2018-03-16T22:06:03.228Z,5.05
2018-03-16T22:08:29.208Z,4.62
2018-03-16T22:10:55.217Z,4.60
2018-03-16T22:13:21.359Z,3.92
2018-03-16T22:15:47.434Z,4.70
2018-03-16T22:18:13.397Z,4.70
2018-03-16T22:20:39.378Z,5.00
2018-03-16T22:23:05.390Z,4.15
2018-03-16T22:25:31.491Z,4.93
2018-03-16T22:27:57.489Z,4.90
2018-03-16T22:30:23.462Z,4.85
2018-03-16T22:32:49.460Z,4.60
2018-03-16T22:35:15.420Z,4.50
2018-03-16T22:37:41.434Z,5.10
2018-03-16T22:40:07.434Z,4.82
2018-03-16T22:42:33.558Z,5.10
2018-03-16T22:44:59.534Z,4.45
2018-03-16T22:47:26.280Z,4.45
2018-03-16T22:49:52.256Z,4.50
2018-03-16T22:52:18.392Z,5.50
2018-03-16T22:54:44.368Z,3.72
2018-03-16T22:57:10.320Z,3.95
2018-03-16T22:59:36.301Z,6.40
2018-03-16T23:02:02.251Z,4.78
2018-03-16T23:04:28.294Z,4.90
2018-03-16T23:06:54.296Z,5.12
2018-03-16T23:09:20.411Z,4.87
2018-03-16T23:11:46.399Z,4.32
2018-03-16T23:14:13.230Z,4.57
2018-03-16T23:16:40.054Z,4.62
2018-03-16T23:19:06.015Z,5.12
2018-03-16T23:21:32.017Z,4.87
2018-03-16T23:23:57.970Z,6.53
2018-03-16T23:26:23.983Z,4.80
2018-03-16T23:28:49.920Z,5.55
2018-03-16T23:31:16.068Z,5.10
2018-03-16T23:33:42.036Z,6.55
2018-03-16T23:36:08.734Z,7.30
2018-03-16T23:38:34.749Z,7.15
2018-03-16T23:41:00.703Z,6.68
2018-03-16T23:43:26.693Z,6.30
2018-03-16T23:45:52.649Z,6.30
2018-03-16T23:48:18.755Z,6.35
2018-03-16T23:50:44.700Z,5.50
2018-03-16T23:53:10.678Z,5.60
2018-03-16T23:55:36.629Z,5.50
2018-03-16T23:58:02.581Z,5.37
